Time;durP1;ratioP1;P1;durP2;ratioP2;P2;SDS_P1;SDS_P2;PMS_P1;PMS_P2;Temp;Humidity;BMP_temperature;BMP_pressure;BME280_temperature;BME280_humidity;BME280_pressure;Samples;Min_cycle;Max_cycle;Signal;HPM_P1;HPM_P2
2023/05/13 00:01:43;;;;;;;6.80;4.37;;;;;;;;;;5034986;28;20298;-86
2023/05/13 00:04:12;;;;;;;5.30;3.90;;;;;;;;;;5003729;28;20285;-85
2023/05/13 00:06:37;;;;;;;4.43;3.93;;;;;;;;;;4999656;28;20279;-86
2023/05/13 00:09:05;;;;;;;4.60;4.17;;;;;;;;;;5002191;28;20216;-87
2023/05/13 00:11:31;;;;;;;9.50;4.20;;;;;;;;;;5025904;28;20339;-84
2023/05/13 00:13:58;;;;;;;6.27;4.23;;;;;;;;;;5010080;28;20216;-85
2023/05/13 00:16:26;;;;;;;5.20;3.67;;;;;;;;;;5002863;28;20231;-84
2023/05/13 00:18:54;;;;;;;7.93;4.30;;;;;;;;;;5006661;28;20263;-87
2023/05/13 00:21:20;;;;;;;7.80;3.70;;;;;;;;;;5010781;28;20254;-85
2023/05/13 00:23:47;;;;;;;3.83;3.50;;;;;;;;;;5003552;28;20215;-86
2023/05/13 00:26:15;;;;;;;4.30;3.93;;;;;;;;;;5034850;28;20265;-85
2023/05/13 00:28:43;;;;;;;4.20;3.70;;;;;;;;;;4988079;28;20243;-86
2023/05/13 00:31:14;;;;;;;4.60;3.90;;;;;;;;;;5036745;28;20226;-84
2023/05/13 00:33:40;;;;;;;4.30;3.90;;;;;;;;;;5035753;28;20223;-84
2023/05/13 00:36:09;;;;;;;8.07;3.97;;;;;;;;;;5058779;28;20212;-84
2023/05/13 00:38:35;;;;;;;3.83;3.40;;;;;;;;;;5019692;28;20232;-83
2023/05/13 00:41:04;;;;;;;4.27;3.87;;;;;;;;;;4996690;28;20220;-86
2023/05/13 00:43:29;;;;;;;6.03;3.73;;;;;;;;;;5034318;28;20219;-83
2023/05/13 00:45:55;;;;;;;4.20;3.80;;;;;;;;;;5014157;28;20200;-82
2023/05/13 00:48:21;;;;;;;4.80;3.60;;;;;;;;;;5016352;28;20211;-83
2023/05/13 00:50:49;;;;;;;4.77;4.27;;;;;;;;;;5018319;28;20243;-83
2023/05/13 00:53:15;;;;;;;4.60;4.00;;;;;;;;;;5033677;28;20216;-84
2023/05/13 00:55:43;;;;;;;4.40;3.67;;;;;;;;;;5034607;28;20212;-84
2023/05/13 00:58:10;;;;;;;4.30;3.90;;;;;;;;;;5010962;28;20228;-83
2023/05/13 01:00:44;;;;;;;5.70;3.80;;;;;;;;;;4999595;28;20231;-83
2023/05/13 01:03:16;;;;;;;3.90;3.60;;;;;;;;;;5022617;28;20245;-84
2023/05/13 01:05:44;;;;;;;3.97;3.57;;;;;;;;;;5006182;28;20214;-86
2023/05/13 01:08:19;;;;;;;4.20;3.90;;;;;;;;;;5028189;28;20315;-85
2023/05/13 01:10:56;;;;;;;4.40;4.00;;;;;;;;;;4999188;28;20223;-85
2023/05/13 01:13:30;;;;;;;4.33;3.93;;;;;;;;;;4980558;28;20588;-83
2023/05/13 01:15:59;;;;;;;5.33;4.20;;;;;;;;;;4997341;28;20219;-86
2023/05/13 01:18:28;;;;;;;8.17;4.33;;;;;;;;;;5022051;28;20259;-84
2023/05/13 01:20:56;;;;;;;4.47;4.07;;;;;;;;;;5014714;28;20308;-83
2023/05/13 01:23:21;;;;;;;4.40;4.00;;;;;;;;;;5017469;28;20231;-84
2023/05/13 01:25:49;;;;;;;4.60;4.23;;;;;;;;;;5003433;28;20219;-86
2023/05/13 01:28:15;;;;;;;4.83;4.30;;;;;;;;;;4998578;28;20224;-84
2023/05/13 01:30:46;;;;;;;4.33;3.93;;;;;;;;;;4994388;28;20214;-85
2023/05/13 01:33:12;;;;;;;4.43;3.87;;;;;;;;;;4994745;28;20253;-84
2023/05/13 01:35:37;;;;;;;4.17;3.80;;;;;;;;;;5004961;28;20215;-85
2023/05/13 01:38:03;;;;;;;4.57;4.17;;;;;;;;;;5043771;28;20231;-85
2023/05/13 01:40:31;;;;;;;4.73;4.00;;;;;;;;;;4984868;28;20223;-85
2023/05/13 01:42:59;;;;;;;5.27;4.30;;;;;;;;;;5018337;28;20216;-85
2023/05/13 01:45:28;;;;;;;5.87;4.30;;;;;;;;;;5003115;28;20364;-86
2023/05/13 01:47:54;;;;;;;4.87;4.30;;;;;;;;;;4988423;28;20771;-85
2023/05/13 01:50:23;;;;;;;5.10;4.60;;;;;;;;;;4982203;28;20244;-85
2023/05/13 01:52:51;;;;;;;5.20;4.70;;;;;;;;;;5012307;28;20237;-83
2023/05/13 01:55:16;;;;;;;4.77;4.37;;;;;;;;;;5014873;28;20602;-84
2023/05/13 01:57:44;;;;;;;7.33;4.67;;;;;;;;;;5012222;28;20211;-83
2023/05/13 02:00:11;;;;;;;5.10;4.70;;;;;;;;;;5012095;28;20211;-84
2023/05/13 02:02:39;;;;;;;4.97;4.57;;;;;;;;;;4998818;28;20235;-83
2023/05/13 02:05:05;;;;;;;4.87;4.47;;;;;;;;;;4977699;28;21173;-83
2023/05/13 02:07:33;;;;;;;5.20;4.70;;;;;;;;;;4996961;28;21009;-84
2023/05/13 02:10:01;;;;;;;6.33;4.83;;;;;;;;;;5009156;28;20235;-83
2023/05/13 02:12:27;;;;;;;5.83;5.03;;;;;;;;;;4992676;28;20220;-84
2023/05/13 02:14:55;;;;;;;5.20;4.70;;;;;;;;;;5019483;28;20227;-83
2023/05/13 02:17:21;;;;;;;5.47;4.97;;;;;;;;;;5034013;28;20245;-84
2023/05/13 02:19:49;;;;;;;5.97;5.37;;;;;;;;;;4993008;28;20223;-83
2023/05/13 02:22:15;;;;;;;5.00;4.70;;;;;;;;;;4995613;28;20231;-85
2023/05/13 02:24:43;;;;;;;5.50;5.00;;;;;;;;;;5013202;28;20595;-85
2023/05/13 02:27:14;;;;;;;5.80;5.30;;;;;;;;;;4990378;28;20258;-85
2023/05/13 02:29:41;;;;;;;5.83;5.10;;;;;;;;;;4998016;28;20222;-85
2023/05/13 02:32:06;;;;;;;5.70;5.20;;;;;;;;;;4979179;28;20609;-84
2023/05/13 02:34:32;;;;;;;5.63;5.13;;;;;;;;;;4996561;28;20235;-84
2023/05/13 02:36:58;;;;;;;6.27;5.30;;;;;;;;;;4996066;28;20216;-85
2023/05/13 02:39:23;;;;;;;5.83;5.27;;;;;;;;;;4990555;28;20222;-85
2023/05/13 02:41:52;;;;;;;5.60;5.10;;;;;;;;;;5012093;28;20310;-85
2023/05/13 02:44:20;;;;;;;5.60;5.17;;;;;;;;;;4997364;28;20220;-84
2023/05/13 02:46:48;;;;;;;5.97;5.47;;;;;;;;;;5008153;28;20298;-85
2023/05/13 02:49:17;;;;;;;6.30;5.80;;;;;;;;;;4994110;28;20215;-84
2023/05/13 02:51:45;;;;;;;6.63;5.63;;;;;;;;;;4999920;28;20214;-85
2023/05/13 02:54:10;;;;;;;5.73;5.23;;;;;;;;;;5020185;28;20212;-85
2023/05/13 02:56:37;;;;;;;5.87;5.37;;;;;;;;;;5009271;28;20755;-87
2023/05/13 02:59:02;;;;;;;5.73;5.23;;;;;;;;;;4994516;28;20215;-86
2023/05/13 03:01:28;;;;;;;5.77;5.20;;;;;;;;;;4994954;28;20234;-86
2023/05/13 03:03:54;;;;;;;5.70;5.20;;;;;;;;;;4994587;28;20217;-85
2023/05/13 03:06:22;;;;;;;5.20;4.80;;;;;;;;;;5000785;28;20817;-86
2023/05/13 03:08:47;;;;;;;4.97;4.57;;;;;;;;;;5003079;28;20219;-85
2023/05/13 03:11:15;;;;;;;6.43;5.03;;;;;;;;;;5047668;28;20691;-84
2023/05/13 03:13:44;;;;;;;5.10;4.60;;;;;;;;;;5023908;28;20663;-84
2023/05/13 03:16:12;;;;;;;4.90;4.50;;;;;;;;;;5015258;28;20231;-85
2023/05/13 03:18:40;;;;;;;5.57;3.93;;;;;;;;;;5037386;28;20273;-84
2023/05/13 03:21:08;;;;;;;5.10;4.53;;;;;;;;;;5058911;28;20239;-84
2023/05/13 03:23:34;;;;;;;4.70;4.30;;;;;;;;;;5018602;28;20203;-84
2023/05/13 03:26:01;;;;;;;4.30;4.00;;;;;;;;;;5032194;28;20280;-84
2023/05/13 03:28:26;;;;;;;4.53;4.13;;;;;;;;;;5011682;28;20212;-86
2023/05/13 03:30:52;;;;;;;4.60;4.20;;;;;;;;;;5021600;28;20297;-87
2023/05/13 03:33:18;;;;;;;4.60;4.20;;;;;;;;;;4993937;28;20223;-87
2023/05/13 03:35:44;;;;;;;4.30;3.90;;;;;;;;;;5001431;28;20291;-84
2023/05/13 03:38:10;;;;;;;4.43;4.03;;;;;;;;;;5002614;28;20261;-86
2023/05/13 03:40:41;;;;;;;4.67;4.27;;;;;;;;;;4999170;28;20705;-86
2023/05/13 03:43:08;;;;;;;5.03;3.67;;;;;;;;;;5014944;28;20220;-87
2023/05/13 03:45:40;;;;;;;4.23;3.90;;;;;;;;;;5000758;28;20219;-86
2023/05/13 03:48:09;;;;;;;4.00;3.70;;;;;;;;;;5003628;28;20224;-87
2023/05/13 03:50:35;;;;;;;4.27;3.90;;;;;;;;;;5019190;28;20793;-85
2023/05/13 03:53:01;;;;;;;4.30;3.90;;;;;;;;;;5003358;28;20224;-85
2023/05/13 03:55:29;;;;;;;4.27;3.97;;;;;;;;;;5003477;28;20220;-85
2023/05/13 03:57:57;;;;;;;3.67;3.37;;;;;;;;;;4999849;28;20228;-85
2023/05/13 04:00:23;;;;;;;3.90;3.60;;;;;;;;;;4996861;28;20232;-86
2023/05/13 04:02:48;;;;;;;3.43;3.13;;;;;;;;;;5035129;28;20216;-85
2023/05/13 04:05:17;;;;;;;4.10;3.70;;;;;;;;;;4995809;28;20230;-87
2023/05/13 04:07:45;;;;;;;3.63;3.30;;;;;;;;;;5010904;28;20211;-86
2023/05/13 04:10:10;;;;;;;5.33;3.70;;;;;;;;;;4986556;28;20270;-85
2023/05/13 04:12:39;;;;;;;3.83;3.53;;;;;;;;;;5034177;28;20243;-85
2023/05/13 04:15:09;;;;;;;3.97;3.57;;;;;;;;;;4993139;28;20864;-84
2023/05/13 04:17:35;;;;;;;3.73;3.40;;;;;;;;;;5002283;28;20961;-86
2023/05/13 04:20:00;;;;;;;3.93;3.60;;;;;;;;;;4994610;28;20216;-84
2023/05/13 04:22:26;;;;;;;4.03;3.73;;;;;;;;;;5014093;28;20229;-86
2023/05/13 04:24:55;;;;;;;5.13;3.37;;;;;;;;;;5005414;28;20224;-84
2023/05/13 04:27:22;;;;;;;4.20;3.80;;;;;;;;;;5002632;28;20219;-85
2023/05/13 04:29:49;;;;;;;4.13;3.73;;;;;;;;;;5020667;28;20238;-84
2023/05/13 04:32:20;;;;;;;4.00;3.30;;;;;;;;;;5022874;28;20219;-85
2023/05/13 04:34:51;;;;;;;3.57;3.13;;;;;;;;;;5002598;28;20235;-84
2023/05/13 04:37:28;;;;;;;3.33;3.07;;;;;;;;;;4997505;28;20228;-86
2023/05/13 04:39:57;;;;;;;3.53;3.23;;;;;;;;;;5018667;28;20227;-85
2023/05/13 04:42:24;;;;;;;3.30;3.10;;;;;;;;;;5018896;28;20215;-84
2023/05/13 04:44:50;;;;;;;3.73;3.43;;;;;;;;;;5019992;28;20224;-84
2023/05/13 04:47:18;;;;;;;3.83;3.50;;;;;;;;;;5029459;28;20692;-85
2023/05/13 04:49:46;;;;;;;3.70;3.40;;;;;;;;;;5021897;28;20667;-85
2023/05/13 04:52:12;;;;;;;3.63;3.33;;;;;;;;;;5002577;28;20227;-85
2023/05/13 04:54:38;;;;;;;3.63;3.33;;;;;;;;;;5001815;28;20242;-85
2023/05/13 04:57:05;;;;;;;3.60;3.30;;;;;;;;;;5001555;28;20237;-86
2023/05/13 04:59:31;;;;;;;3.60;3.30;;;;;;;;;;4993507;28;20489;-84
2023/05/13 05:01:56;;;;;;;3.60;3.20;;;;;;;;;;4997599;28;20223;-86
2023/05/13 05:04:25;;;;;;;3.43;3.20;;;;;;;;;;5033744;28;20254;-85
2023/05/13 05:06:50;;;;;;;3.53;3.27;;;;;;;;;;5001771;28;20213;-86
2023/05/13 05:09:17;;;;;;;3.53;3.25;;;;;;;;;;5001962;28;20714;-85
2023/05/13 05:11:49;;;;;;;3.27;3.00;;;;;;;;;;4997607;28;20224;-86
2023/05/13 05:14:19;;;;;;;3.43;3.13;;;;;;;;;;5032193;28;20293;-84
2023/05/13 05:16:47;;;;;;;3.40;3.10;;;;;;;;;;4992896;28;20280;-84
2023/05/13 05:19:13;;;;;;;3.33;3.13;;;;;;;;;;5012982;28;20224;-86
2023/05/13 05:21:41;;;;;;;3.47;3.07;;;;;;;;;;5004071;28;20230;-86
2023/05/13 05:24:08;;;;;;;3.70;3.40;;;;;;;;;;5001390;28;20220;-86
2023/05/13 05:26:36;;;;;;;3.50;3.20;;;;;;;;;;5001013;28;20227;-87
2023/05/13 05:29:01;;;;;;;3.75;3.30;;;;;;;;;;5028651;28;20212;-85
2023/05/13 05:31:27;;;;;;;3.20;2.95;;;;;;;;;;5018863;28;20257;-85
2023/05/13 05:33:55;;;;;;;3.60;3.27;;;;;;;;;;5011856;28;20223;-84
2023/05/13 05:36:20;;;;;;;3.10;2.90;;;;;;;;;;5005225;28;20223;-83
2023/05/13 05:38:51;;;;;;;3.07;2.87;;;;;;;;;;4999783;28;20361;-82
2023/05/13 05:41:19;;;;;;;3.28;3.08;;;;;;;;;;5018727;28;20498;-84
2023/05/13 05:43:51;;;;;;;4.00;2.80;;;;;;;;;;5011694;28;20220;-81
2023/05/13 05:46:18;;;;;;;2.97;2.78;;;;;;;;;;5030888;28;20223;-83
2023/05/13 05:48:43;;;;;;;3.40;3.10;;;;;;;;;;5020509;28;20216;-82
2023/05/13 05:51:09;;;;;;;2.80;2.60;;;;;;;;;;4997060;28;20224;-84
2023/05/13 05:53:41;;;;;;;2.80;2.60;;;;;;;;;;5027387;28;20226;-84
2023/05/13 05:56:07;;;;;;;4.43;3.03;;;;;;;;;;5038634;28;20211;-84
2023/05/13 05:58:33;;;;;;;3.05;2.83;;;;;;;;;;5000294;28;20324;-85
2023/05/13 06:01:01;;;;;;;3.10;2.90;;;;;;;;;;5019010;28;20239;-85
2023/05/13 06:03:29;;;;;;;2.83;2.63;;;;;;;;;;5019812;28;20235;-85
2023/05/13 06:05:56;;;;;;;4.18;3.03;;;;;;;;;;5001862;28;20207;-84
2023/05/13 06:08:28;;;;;;;3.45;3.03;;;;;;;;;;5017011;28;20226;-83
2023/05/13 06:10:58;;;;;;;9.57;2.90;;;;;;;;;;5003596;28;20231;-86
2023/05/13 06:13:25;;;;;;;3.97;2.80;;;;;;;;;;5019636;28;20243;-86
2023/05/13 06:15:50;;;;;;;2.90;2.70;;;;;;;;;;5010902;28;20258;-84
2023/05/13 06:18:16;;;;;;;3.92;2.67;;;;;;;;;;4995668;28;20243;-86
2023/05/13 06:20:41;;;;;;;2.80;2.60;;;;;;;;;;5018250;28;20220;-86
2023/05/13 06:23:08;;;;;;;2.97;2.70;;;;;;;;;;4999185;28;20208;-84
2023/05/13 06:25:33;;;;;;;3.53;2.83;;;;;;;;;;5030785;28;20280;-85
2023/05/13 06:27:59;;;;;;;3.42;2.80;;;;;;;;;;4994718;28;20228;-86
2023/05/13 06:30:25;;;;;;;3.58;2.70;;;;;;;;;;4990775;28;20224;-86
2023/05/13 06:32:50;;;;;;;2.85;2.65;;;;;;;;;;5018894;28;20220;-87
2023/05/13 06:35:16;;;;;;;3.33;2.72;;;;;;;;;;5017522;28;20744;-86
2023/05/13 06:37:43;;;;;;;2.80;2.60;;;;;;;;;;5014231;28;20630;-86
2023/05/13 06:40:10;;;;;;;2.90;2.70;;;;;;;;;;5002326;28;20301;-83
2023/05/13 06:42:42;;;;;;;2.90;2.70;;;;;;;;;;5014516;28;20219;-85
2023/05/13 06:45:28;;;;;;;3.08;2.85;;;;;;;;;;5020029;28;20258;-86
2023/05/13 06:47:53;;;;;;;3.00;2.72;;;;;;;;;;5022253;28;20212;-86
2023/05/13 06:50:23;;;;;;;3.70;2.95;;;;;;;;;;5006820;28;20267;-84
2023/05/13 06:52:49;;;;;;;2.80;2.60;;;;;;;;;;5005059;28;20216;-83
2023/05/13 06:55:15;;;;;;;2.65;2.45;;;;;;;;;;5020971;28;20230;-85
2023/05/13 06:57:44;;;;;;;2.90;2.60;;;;;;;;;;4998550;28;20228;-87
2023/05/13 07:00:10;;;;;;;2.75;2.55;;;;;;;;;;5006500;28;20284;-86
2023/05/13 07:02:38;;;;;;;2.63;2.42;;;;;;;;;;5006981;28;20216;-86
2023/05/13 07:05:05;;;;;;;2.88;2.67;;;;;;;;;;5020994;28;20284;-85
2023/05/13 07:07:33;;;;;;;2.80;2.60;;;;;;;;;;5005337;28;20747;-87
2023/05/13 07:09:59;;;;;;;2.80;2.60;;;;;;;;;;5017766;28;20261;-84
2023/05/13 07:12:29;;;;;;;2.78;2.58;;;;;;;;;;5035225;28;20204;-83
2023/05/13 07:14:57;;;;;;;2.90;2.70;;;;;;;;;;5035368;28;20215;-83
2023/05/13 07:17:22;;;;;;;3.00;2.70;;;;;;;;;;5019080;28;20295;-83
2023/05/13 07:19:50;;;;;;;3.75;2.45;;;;;;;;;;4999305;28;20321;-84
2023/05/13 07:22:16;;;;;;;3.22;2.92;;;;;;;;;;5026045;28;20881;-82
2023/05/13 07:24:46;;;;;;;4.65;2.78;;;;;;;;;;5015913;28;20208;-84
2023/05/13 07:27:14;;;;;;;2.83;2.63;;;;;;;;;;5007486;28;20220;-83
2023/05/13 07:29:44;;;;;;;3.10;2.80;;;;;;;;;;5005709;28;20196;-82
2023/05/13 07:32:12;;;;;;;2.65;2.45;;;;;;;;;;5021172;28;20220;-81
2023/05/13 07:34:38;;;;;;;3.45;2.65;;;;;;;;;;5013262;28;20284;-80
2023/05/13 07:37:04;;;;;;;3.60;2.58;;;;;;;;;;5040276;28;20532;-81
2023/05/13 07:39:33;;;;;;;3.25;2.85;;;;;;;;;;5056165;28;20235;-80
2023/05/13 07:41:59;;;;;;;3.30;2.45;;;;;;;;;;5017870;28;20222;-81
2023/05/13 07:44:25;;;;;;;2.72;2.53;;;;;;;;;;5014882;28;20278;-84
2023/05/13 07:46:52;;;;;;;3.45;2.70;;;;;;;;;;5028994;28;20224;-76
2023/05/13 07:49:20;;;;;;;2.72;2.53;;;;;;;;;;5045687;28;20216;-77
2023/05/13 07:51:47;;;;;;;2.50;2.30;;;;;;;;;;5039097;28;20225;-78
2023/05/13 07:54:13;;;;;;;3.10;2.80;;;;;;;;;;4998294;28;20247;-77
2023/05/13 07:56:39;;;;;;;3.28;2.47;;;;;;;;;;5045253;28;20220;-77
2023/05/13 07:59:06;;;;;;;2.53;2.33;;;;;;;;;;5038460;28;20253;-78
2023/05/13 08:01:34;;;;;;;2.80;2.60;;;;;;;;;;5052925;28;20235;-76
2023/05/13 08:04:02;;;;;;;2.80;2.60;;;;;;;;;;5033922;28;20219;-79
2023/05/13 08:06:28;;;;;;;2.90;2.60;;;;;;;;;;5015532;28;20243;-79
2023/05/13 08:08:53;;;;;;;2.70;2.50;;;;;;;;;;4985004;28;20740;-80
2023/05/13 08:11:20;;;;;;;2.42;2.30;;;;;;;;;;5025177;28;20227;-79
2023/05/13 08:13:48;;;;;;;2.92;2.55;;;;;;;;;;5015729;28;20963;-79
2023/05/13 08:16:13;;;;;;;2.53;2.33;;;;;;;;;;5038952;28;20642;-81
2023/05/13 08:18:39;;;;;;;2.40;2.10;;;;;;;;;;5016903;28;20216;-82
2023/05/13 08:21:05;;;;;;;2.58;2.40;;;;;;;;;;5037790;28;20239;-80
2023/05/13 08:23:31;;;;;;;2.60;2.40;;;;;;;;;;5033663;28;20229;-78
2023/05/13 08:25:59;;;;;;;3.95;2.28;;;;;;;;;;5031530;28;20243;-79
2023/05/13 08:28:26;;;;;;;4.13;2.20;;;;;;;;;;5015695;28;20295;-81
2023/05/13 08:30:54;;;;;;;3.45;2.20;;;;;;;;;;4983556;28;20628;-78
2023/05/13 08:33:19;;;;;;;2.47;2.10;;;;;;;;;;5010291;28;20277;-79
2023/05/13 08:35:45;;;;;;;2.88;2.60;;;;;;;;;;4993963;28;20211;-81
2023/05/13 08:38:11;;;;;;;2.88;2.58;;;;;;;;;;5017582;28;20719;-77
2023/05/13 08:40:40;;;;;;;3.00;2.60;;;;;;;;;;5014145;28;20220;-79
2023/05/13 08:43:05;;;;;;;3.92;2.53;;;;;;;;;;4998152;28;20267;-77
2023/05/13 08:45:31;;;;;;;4.10;2.72;;;;;;;;;;4991809;28;20292;-80
2023/05/13 08:47:58;;;;;;;4.63;2.35;;;;;;;;;;5006272;28;20292;-80
2023/05/13 08:50:24;;;;;;;2.30;2.10;;;;;;;;;;5009822;28;20230;-79
2023/05/13 08:52:54;;;;;;;2.50;2.30;;;;;;;;;;5031808;28;20224;-81
2023/05/13 08:55:20;;;;;;;2.55;2.28;;;;;;;;;;5014089;28;20224;-79
2023/05/13 08:57:50;;;;;;;2.78;2.25;;;;;;;;;;5014592;28;20215;-80
2023/05/13 09:00:20;;;;;;;2.05;1.95;;;;;;;;;;5018416;28;20224;-76
2023/05/13 09:02:46;;;;;;;2.22;2.03;;;;;;;;;;5037674;28;20284;-81
2023/05/13 09:05:11;;;;;;;2.47;2.28;;;;;;;;;;5015773;28;20224;-79
2023/05/13 09:07:37;;;;;;;3.22;2.30;;;;;;;;;;4991979;28;20211;-79
2023/05/13 09:10:04;;;;;;;2.33;2.13;;;;;;;;;;4999274;28;20203;-80
2023/05/13 09:12:52;;;;;;;2.50;2.30;;;;;;;;;;5010408;28;20227;-84
2023/05/13 09:15:22;;;;;;;2.38;2.15;;;;;;;;;;5019191;28;20323;-80
2023/05/13 09:17:54;;;;;;;3.42;2.22;;;;;;;;;;5021170;28;20265;-84
2023/05/13 09:20:20;;;;;;;2.22;2.13;;;;;;;;;;5000386;28;20226;-85
2023/05/13 09:22:47;;;;;;;2.80;2.60;;;;;;;;;;5011411;28;20230;-81
2023/05/13 09:25:16;;;;;;;2.78;2.50;;;;;;;;;;5017240;28;20215;-83
2023/05/13 09:27:46;;;;;;;2.85;2.60;;;;;;;;;;5013278;28;20227;-85
2023/05/13 09:30:16;;;;;;;3.55;2.30;;;;;;;;;;5029120;28;20219;-84
2023/05/13 09:32:42;;;;;;;2.90;2.70;;;;;;;;;;5003591;28;20696;-83
2023/05/13 09:35:17;;;;;;;2.65;2.40;;;;;;;;;;5003683;28;20230;-83
2023/05/13 09:37:46;;;;;;;4.97;2.40;;;;;;;;;;5014427;28;20238;-83
2023/05/13 09:40:13;;;;;;;2.75;2.55;;;;;;;;;;5006226;28;20220;-79
2023/05/13 09:42:43;;;;;;;2.80;2.50;;;;;;;;;;5030996;23;20759;-76
2023/05/13 09:45:09;;;;;;;2.60;2.40;;;;;;;;;;4999407;28;20224;-76
2023/05/13 09:47:37;;;;;;;2.78;2.58;;;;;;;;;;4984283;28;20565;-74
2023/05/13 09:50:03;;;;;;;2.58;2.38;;;;;;;;;;4992999;28;20697;-75
2023/05/13 09:52:32;;;;;;;3.05;2.40;;;;;;;;;;5017118;28;20228;-74
2023/05/13 09:55:08;;;;;;;3.08;2.47;;;;;;;;;;5010158;28;20213;-75
2023/05/13 09:57:33;;;;;;;3.65;2.10;;;;;;;;;;5023505;28;20236;-74
2023/05/13 09:59:59;;;;;;;3.33;2.38;;;;;;;;;;5016683;28;20622;-75
2023/05/13 10:02:28;;;;;;;2.83;2.40;;;;;;;;;;5001190;28;20224;-74
2023/05/13 10:04:57;;;;;;;2.78;2.38;;;;;;;;;;5022392;28;20255;-74
2023/05/13 10:07:26;;;;;;;2.40;2.20;;;;;;;;;;5000070;28;20224;-75
2023/05/13 10:09:53;;;;;;;3.97;2.20;;;;;;;;;;4992552;28;20770;-75
2023/05/13 10:12:21;;;;;;;2.30;1.88;;;;;;;;;;5032135;28;20224;-74
2023/05/13 10:14:55;;;;;;;3.47;2.33;;;;;;;;;;4967995;28;20290;-74
2023/05/13 10:17:22;;;;;;;2.40;2.20;;;;;;;;;;5019058;28;20585;-74
2023/05/13 10:19:56;;;;;;;2.17;1.98;;;;;;;;;;5032660;28;20217;-73
2023/05/13 10:22:26;;;;;;;2.53;2.22;;;;;;;;;;5006864;28;20221;-73
2023/05/13 10:24:56;;;;;;;2.50;2.30;;;;;;;;;;5022839;28;20354;-74
2023/05/13 10:27:25;;;;;;;2.65;2.00;;;;;;;;;;5008270;28;20220;-75
2023/05/13 10:29:50;;;;;;;2.10;2.00;;;;;;;;;;5008051;28;20209;-73
2023/05/13 10:32:18;;;;;;;3.00;2.03;;;;;;;;;;5019971;28;20227;-74
2023/05/13 10:34:45;;;;;;;2.30;2.10;;;;;;;;;;5008148;28;20220;-74
2023/05/13 10:37:46;;;;;;;2.40;2.20;;;;;;;;;;4987491;28;20227;-75
2023/05/13 10:40:35;;;;;;;3.35;2.20;;;;;;;;;;5015429;28;20546;-75
2023/05/13 10:43:20;;;;;;;2.35;2.10;;;;;;;;;;5038092;28;20223;-74
2023/05/13 10:45:50;;;;;;;3.20;2.13;;;;;;;;;;5019652;28;20224;-75
2023/05/13 10:48:16;;;;;;;3.05;2.30;;;;;;;;;;5031829;28;20638;-75
2023/05/13 10:50:51;;;;;;;2.10;2.00;;;;;;;;;;5017801;28;20238;-74
2023/05/13 10:53:24;;;;;;;3.35;1.90;;;;;;;;;;5019328;28;20216;-74
2023/05/13 10:55:59;;;;;;;2.65;2.28;;;;;;;;;;5019302;28;20230;-74
2023/05/13 10:58:35;;;;;;;3.67;2.30;;;;;;;;;;5033228;28;20880;-73
2023/05/13 11:01:17;;;;;;;2.22;2.13;;;;;;;;;;5008141;28;20220;-74
2023/05/13 11:03:58;;;;;;;2.60;2.40;;;;;;;;;;5022549;28;20242;-74
2023/05/13 11:06:36;;;;;;;2.25;1.88;;;;;;;;;;5006317;28;20236;-74
2023/05/13 11:09:07;;;;;;;2.90;2.13;;;;;;;;;;5017277;28;20294;-75
2023/05/13 11:11:35;;;;;;;2.25;1.90;;;;;;;;;;5017334;28;20232;-77
2023/05/13 11:14:20;;;;;;;2.03;1.83;;;;;;;;;;5009051;28;20212;-75
2023/05/13 11:16:55;;;;;;;2.15;1.95;;;;;;;;;;5009399;28;20239;-75
2023/05/13 11:19:30;;;;;;;2.17;1.98;;;;;;;;;;5019005;28;20370;-75
2023/05/13 11:22:04;;;;;;;2.33;2.13;;;;;;;;;;5001358;28;20306;-75
2023/05/13 11:24:29;;;;;;;1.90;1.80;;;;;;;;;;5016318;28;20232;-77
2023/05/13 11:26:56;;;;;;;2.05;1.90;;;;;;;;;;5008866;28;20226;-76
2023/05/13 11:29:32;;;;;;;3.33;1.80;;;;;;;;;;5036373;28;20223;-76
2023/05/13 11:32:00;;;;;;;1.85;1.73;;;;;;;;;;5028032;28;20216;-75
2023/05/13 11:34:26;;;;;;;3.25;1.90;;;;;;;;;;5026798;28;20217;-75
2023/05/13 11:37:08;;;;;;;1.95;1.85;;;;;;;;;;5026386;28;20736;-76
2023/05/13 11:39:33;;;;;;;2.55;1.92;;;;;;;;;;4986872;28;20245;-76
2023/05/13 11:42:00;;;;;;;2.15;1.95;;;;;;;;;;5005733;28;20271;-76
2023/05/13 11:44:26;;;;;;;5.13;2.40;;;;;;;;;;5026584;28;20240;-75
2023/05/13 11:46:55;;;;;;;2.72;2.53;;;;;;;;;;5018358;28;20216;-75
2023/05/13 11:49:40;;;;;;;3.15;1.92;;;;;;;;;;5020656;28;20227;-76
2023/05/13 11:52:18;;;;;;;2.08;1.95;;;;;;;;;;5005858;28;20247;-76
2023/05/13 11:54:49;;;;;;;2.20;2.00;;;;;;;;;;5016979;28;20224;-75
2023/05/13 11:57:24;;;;;;;1.98;1.85;;;;;;;;;;5033108;28;20232;-74
2023/05/13 11:59:52;;;;;;;2.55;1.80;;;;;;;;;;5004229;28;20220;-74
2023/05/13 12:02:24;;;;;;;2.55;2.10;;;;;;;;;;5021831;28;20230;-75
2023/05/13 12:04:50;;;;;;;2.25;1.83;;;;;;;;;;5017692;28;20631;-76
2023/05/13 12:07:22;;;;;;;3.42;2.03;;;;;;;;;;5017917;28;20282;-76
2023/05/13 12:09:51;;;;;;;2.38;1.90;;;;;;;;;;4991449;28;20212;-77
2023/05/13 12:12:17;;;;;;;1.92;1.75;;;;;;;;;;5025891;28;20224;-76
2023/05/13 12:14:45;;;;;;;2.20;1.77;;;;;;;;;;5020404;28;20579;-74
2023/05/13 12:17:13;;;;;;;1.88;1.70;;;;;;;;;;5021956;28;20303;-76
2023/05/13 12:19:39;;;;;;;1.92;1.77;;;;;;;;;;5018393;28;20326;-75
2023/05/13 12:22:07;;;;;;;2.22;1.83;;;;;;;;;;4973699;28;20265;-76
2023/05/13 12:24:33;;;;;;;1.90;1.80;;;;;;;;;;5020359;28;20282;-76
2023/05/13 12:27:06;;;;;;;1.95;1.80;;;;;;;;;;5004121;28;20216;-75
2023/05/13 12:29:41;;;;;;;2.80;1.85;;;;;;;;;;5016478;28;20212;-75
2023/05/13 12:32:11;;;;;;;4.00;1.67;;;;;;;;;;5011630;28;20734;-76
2023/05/13 12:34:39;;;;;;;2.97;1.60;;;;;;;;;;4989880;28;20235;-75
2023/05/13 12:37:11;;;;;;;2.33;1.75;;;;;;;;;;5018233;28;20777;-76
2023/05/13 12:39:37;;;;;;;2.03;1.88;;;;;;;;;;5018037;28;20224;-75
2023/05/13 12:42:16;;;;;;;1.80;1.70;;;;;;;;;;5024461;28;20212;-75
2023/05/13 12:44:43;;;;;;;1.73;1.63;;;;;;;;;;5007149;28;20378;-74
2023/05/13 12:47:09;;;;;;;2.35;1.80;;;;;;;;;;5025458;28;20791;-74
2023/05/13 12:49:57;;;;;;;2.05;1.83;;;;;;;;;;5021297;28;20706;-75
2023/05/13 12:52:22;;;;;;;2.70;1.65;;;;;;;;;;5011879;28;21738;-75
2023/05/13 12:54:48;;;;;;;2.00;1.40;;;;;;;;;;5028021;28;20239;-74
2023/05/13 12:57:17;;;;;;;1.63;1.52;;;;;;;;;;5015068;28;20229;-75
2023/05/13 12:59:47;;;;;;;1.90;1.73;;;;;;;;;;5022628;28;20228;-74
2023/05/13 13:02:12;;;;;;;1.85;1.52;;;;;;;;;;5022654;28;20220;-75
2023/05/13 13:04:38;;;;;;;2.78;1.73;;;;;;;;;;5036581;28;20238;-74
2023/05/13 13:07:07;;;;;;;2.20;1.70;;;;;;;;;;5033108;28;20744;-75
2023/05/13 13:09:35;;;;;;;1.63;1.50;;;;;;;;;;5021010;28;20228;-75
2023/05/13 13:12:01;;;;;;;1.77;1.65;;;;;;;;;;5020110;28;20688;-75
2023/05/13 13:14:28;;;;;;;1.92;1.60;;;;;;;;;;5021206;28;20212;-74
2023/05/13 13:16:59;;;;;;;1.92;1.60;;;;;;;;;;5035332;28;20224;-75
2023/05/13 13:19:26;;;;;;;1.70;1.60;;;;;;;;;;5018944;28;20286;-74
2023/05/13 13:21:56;;;;;;;2.65;1.30;;;;;;;;;;5024052;28;20310;-74
2023/05/13 13:24:22;;;;;;;1.88;1.77;;;;;;;;;;5025305;28;20228;-74
2023/05/13 13:26:52;;;;;;;2.00;1.50;;;;;;;;;;5031534;28;20233;-74
2023/05/13 13:29:22;;;;;;;1.75;1.48;;;;;;;;;;5025126;28;20216;-74
2023/05/13 13:31:47;;;;;;;1.60;1.50;;;;;;;;;;5018507;28;20224;-74
2023/05/13 13:34:13;;;;;;;2.03;1.48;;;;;;;;;;5015590;28;20737;-76
2023/05/13 13:36:41;;;;;;;1.75;1.65;;;;;;;;;;5035767;28;20274;-74
2023/05/13 13:39:11;;;;;;;1.73;1.63;;;;;;;;;;5024019;28;20314;-75
2023/05/13 13:41:46;;;;;;;2.22;1.67;;;;;;;;;;5016754;28;20237;-74
2023/05/13 13:44:12;;;;;;;2.05;1.85;;;;;;;;;;5021091;28;20208;-76
2023/05/13 13:46:40;;;;;;;1.50;1.40;;;;;;;;;;5003119;28;20216;-75
2023/05/13 13:49:05;;;;;;;2.33;1.48;;;;;;;;;;5009044;28;20208;-76
2023/05/13 13:51:31;;;;;;;1.60;1.50;;;;;;;;;;5032438;28;20242;-74
2023/05/13 13:54:02;;;;;;;1.95;1.65;;;;;;;;;;4988216;28;20597;-75
2023/05/13 13:56:29;;;;;;;1.58;1.48;;;;;;;;;;4986759;28;20233;-75
2023/05/13 13:58:55;;;;;;;1.70;1.60;;;;;;;;;;5018113;28;20628;-75
2023/05/13 14:01:23;;;;;;;2.00;1.80;;;;;;;;;;5021627;28;20228;-76
2023/05/13 14:04:01;;;;;;;1.67;1.50;;;;;;;;;;5004236;28;20212;-76
2023/05/13 14:06:26;;;;;;;1.95;1.85;;;;;;;;;;5004401;28;20224;-76
2023/05/13 14:08:52;;;;;;;5.65;2.80;;;;;;;;;;5015661;28;20218;-75
2023/05/13 14:11:20;;;;;;;2.88;2.40;;;;;;;;;;5018837;28;20231;-77
2023/05/13 14:13:46;;;;;;;2.08;1.60;;;;;;;;;;5019860;28;20216;-74
2023/05/13 14:16:11;;;;;;;1.92;1.83;;;;;;;;;;5024787;28;20239;-74
2023/05/13 14:18:37;;;;;;;1.60;1.50;;;;;;;;;;5032172;28;20236;-74
2023/05/13 14:21:02;;;;;;;3.58;1.48;;;;;;;;;;4999853;28;20238;-74
2023/05/13 14:23:28;;;;;;;2.13;1.80;;;;;;;;;;5034071;28;20227;-74
2023/05/13 14:25:53;;;;;;;2.05;1.70;;;;;;;;;;4999584;28;20224;-74
2023/05/13 14:28:20;;;;;;;3.85;2.88;;;;;;;;;;5029207;28;20216;-75
2023/05/13 14:30:45;;;;;;;1.60;1.50;;;;;;;;;;5003567;28;21014;-75
2023/05/13 14:33:13;;;;;;;2.00;1.80;;;;;;;;;;5001842;28;20274;-75
2023/05/13 14:35:39;;;;;;;1.58;1.30;;;;;;;;;;5000708;28;20618;-75
2023/05/13 14:38:04;;;;;;;2.15;1.10;;;;;;;;;;5025907;28;20213;-74
2023/05/13 14:40:30;;;;;;;1.50;1.38;;;;;;;;;;5035283;28;20693;-74
2023/05/13 14:42:57;;;;;;;2.35;1.83;;;;;;;;;;4990695;28;20596;-72
2023/05/13 14:45:25;;;;;;;3.45;1.50;;;;;;;;;;5018662;28;20264;-74
2023/05/13 14:47:52;;;;;;;2.13;1.33;;;;;;;;;;5010165;28;20219;-74
2023/05/13 14:50:19;;;;;;;1.50;1.30;;;;;;;;;;5017038;28;20216;-74